This is the latest recevied weather packets stored in our database for station/object KZ4HT-13. If no packets are shown the sender has not sent any weather packets the latest 10 day(s).
| Time | Temp. | Humidity | Pressure | Rain* | Wind** | Luminosity | Snow |
|---|---|---|---|---|---|---|---|
| 1777537267 | 21.11° C | 96% | 1012.1 hPa | 0 mm | - | - | - |
| 1777530062 | 21.11° C | 93% | 1013.2 hPa | 0 mm | - | - | - |
| 1777517421 | 24.44° C | 73% | 1014.3 hPa | 0 mm | - | - | - |
| 1777510255 | 27.22° C | 57% | 1012.7 hPa | 0 mm | - | - | - |
| 1777507850 | 28.89° C | 50% | 1011.9 hPa | 0 mm | - | - | - |
| 1777505445 | 30° C | 45% | 1011.8 hPa | 0 mm | - | - | - |
| 1777504843 | 30.56° C | 44% | 1011.8 hPa | 0 mm | - | - | - |
| 1777503037 | 31.11° C | 43% | 1011.6 hPa | 0 mm | - | - | - |
| 1777501231 | 31.67° C | 43% | 1011.8 hPa | 0 mm | - | - | - |
| 1777500629 | 31.67° C | 43% | 1011.8 hPa | 0 mm | - | - | - |
| 1777500048 | 31.67° C | 43% | 1012 hPa | 0 mm | - | - | - |
| 1777498822 | 31.67° C | 43% | 1012 hPa | 0 mm | - | - | - |
| 1777491666 | 31.67° C | 45% | 1014.1 hPa | 0 mm | - | - | - |
| 1777488657 | 31.67° C | 45% | 1015.3 hPa | 0 mm | - | - | - |
| 1777486854 | 31.11° C | 48% | 1015.7 hPa | 0 mm | - | - | - |
| 1777485652 | 30.56° C | 48% | 1015.9 hPa | 0 mm | - | - | - |
| 1777481440 | 28.89° C | 53% | 1016.9 hPa | 0 mm | - | - | - |
| 1777480839 | 28.89° C | 53% | 1017 hPa | 0 mm | - | - | - |
| 1777480238 | 28.89° C | 53% | 1017.4 hPa | 0 mm | - | - | - |
| 1777479656 | 28.89° C | 52% | 1017.6 hPa | 0 mm | - | - | - |
| 1777476626 | 27.78° C | 61% | 1018.2 hPa | 0 mm | - | - | - |
| 1777476025 | 27.78° C | 62% | 1018.3 hPa | 0 mm | - | - | - |
| 1777474823 | 26.67° C | 65% | 1018.5 hPa | 0 mm | - | - | - |
| 1777472418 | 26.67° C | 70% | 1018.6 hPa | 0 mm | - | - | - |
| 1777471836 | 25.56° C | 74% | 1018.8 hPa | 0 mm | - | - | - |
* Rain since midnight (hover to see other rain measurements)
** Current wind speed in m/s (hover to see current wind gust speed)